Strona główna
METAR-TAF:

METAR-TAF

Lotnisko :

Albert, Francja

Szerokość geograficzna: 49-58-21N, Długość geograficzna: 002-41-29E, wysokość: 111 m

Aktualna obserwacja pogody

Raport powstał 19 minut temu, godzina 08:30 UTC
Wiatr 14 kt od północno-północny wschód
Temperatura 16°C
Wilgotność 59%
Ciśnienie 1032 hPa
Widzialność 10 km lub więcej
Brak chmur poniżej 1500 m i brak chmur cumulonimbus

METAR: LFAQ 280830Z AUTO 03014KT CAVOK 16/08 Q1032 NOSIG

czas: 10:49 (08:49 UTC)

Prognoza

Raport powstał 3 godziny i 49 minut temu, godzina 05:00 UTC
Prognoza ważna od 28 godzina 06 UTC do 28 godzina 15 UTC
Wiatr 12 kt od północno-północny wschód
Widzialność 10 km lub więcej
Brak chmur poniżej 1500 m i brak chmur cumulonimbus
Prawdopodobieństwo 30% :
Przejściowo
od 28 godzina 06 UTC do 28 godzina 07 UTC
Przerywane chmury na wysokości 1100 ft

TAF: LFAQ 280500Z 2806/2815 03012KT CAVOK PROB30 TEMPO 2806/2807 BKN011

Obserwacja i prognoza pogody dla ponad 4000 lotnisk (raport METAR i TAF).

Dostępne stacje oznaczono żółtymi i czerwonymi punktami na mapie.

Najedź kursorem aby zobaczyć nazwę stacji.

Kliknij aby zobaczyć obserwacje i prognozy pogody.

Aby zmienić mapę: kliknij na zielony przycisk z czarnym krzyżykiem, aby powiększyć; na zielony przycisk z myślnikiem, aby pomniejszyć; na zielone strzałki, aby przejść do map sąsiednich.


METAR-TAF: